sensor_id;sensor_type;location;lat;lon;timestamp;temperature;humidity
19555;DHT22;9924;50.828;6.440;2022-09-03T00:00:20;17.50;99.60
19555;DHT22;9924;50.828;6.440;2022-09-03T00:03:02;17.50;99.60
19555;DHT22;9924;50.828;6.440;2022-09-03T00:05:55;17.50;98.70
19555;DHT22;9924;50.828;6.440;2022-09-03T00:08:35;17.50;98.80
19555;DHT22;9924;50.828;6.440;2022-09-03T00:11:24;17.50;98.80
19555;DHT22;9924;50.828;6.440;2022-09-03T00:13:59;17.50;99.00
19555;DHT22;9924;50.828;6.440;2022-09-03T00:16:33;17.40;99.10
19555;DHT22;9924;50.828;6.440;2022-09-03T00:19:05;17.40;99.50
19555;DHT22;9924;50.828;6.440;2022-09-03T00:21:39;17.40;99.20
19555;DHT22;9924;50.828;6.440;2022-09-03T00:24:08;17.40;99.40
19555;DHT22;9924;50.828;6.440;2022-09-03T00:26:36;17.30;99.40
19555;DHT22;9924;50.828;6.440;2022-09-03T00:29:26;17.30;99.90
19555;DHT22;9924;50.828;6.440;2022-09-03T00:31:55;17.30;99.90
19555;DHT22;9924;50.828;6.440;2022-09-03T00:34:39;17.30;99.90
19555;DHT22;9924;50.828;6.440;2022-09-03T00:37:08;17.20;99.90
19555;DHT22;9924;50.828;6.440;2022-09-03T00:39:35;17.20;99.90
19555;DHT22;9924;50.828;6.440;2022-09-03T00:55:42;16.90;99.90
19555;DHT22;9924;50.828;6.440;2022-09-03T01:00:59;16.90;99.90
19555;DHT22;9924;50.828;6.440;2022-09-03T01:03:58;16.80;99.90
19555;DHT22;9924;50.828;6.440;2022-09-03T01:06:54;16.70;99.90
19555;DHT22;9924;50.828;6.440;2022-09-03T01:09:44;16.70;99.90
19555;DHT22;9924;50.828;6.440;2022-09-03T01:12:22;16.60;99.90
19555;DHT22;9924;50.828;6.440;2022-09-03T01:15:03;16.60;99.90
19555;DHT22;9924;50.828;6.440;2022-09-03T01:26:14;16.60;99.90
19555;DHT22;9924;50.828;6.440;2022-09-03T01:29:16;16.60;99.90
19555;DHT22;9924;50.828;6.440;2022-09-03T01:32:02;16.50;99.90
19555;DHT22;9924;50.828;6.440;2022-09-03T01:38:00;16.50;99.90
19555;DHT22;9924;50.828;6.440;2022-09-03T01:40:57;16.50;99.90
19555;DHT22;9924;50.828;6.440;2022-09-03T01:44:13;16.40;99.90
19555;DHT22;9924;50.828;6.440;2022-09-03T01:46:45;16.30;99.90
19555;DHT22;9924;50.828;6.440;2022-09-03T01:49:24;16.30;99.90
19555;DHT22;9924;50.828;6.440;2022-09-03T01:52:08;16.30;99.90
19555;DHT22;9924;50.828;6.440;2022-09-03T02:00:58;16.20;99.90
19555;DHT22;9924;50.828;6.440;2022-09-03T02:03:34;16.20;99.90
19555;DHT22;9924;50.828;6.440;2022-09-03T02:06:01;16.20;99.90
19555;DHT22;9924;50.828;6.440;2022-09-03T02:08:31;16.20;99.90
19555;DHT22;9924;50.828;6.440;2022-09-03T02:10:58;16.20;99.90
19555;DHT22;9924;50.828;6.440;2022-09-03T02:13:40;16.20;99.90
19555;DHT22;9924;50.828;6.440;2022-09-03T02:16:27;16.30;99.90
19555;DHT22;9924;50.828;6.440;2022-09-03T02:19:01;16.20;99.90
19555;DHT22;9924;50.828;6.440;2022-09-03T02:21:38;16.20;99.90
19555;DHT22;9924;50.828;6.440;2022-09-03T02:24:13;16.20;99.90
19555;DHT22;9924;50.828;6.440;2022-09-03T02:26:45;16.20;99.90
19555;DHT22;9924;50.828;6.440;2022-09-03T02:29:13;16.20;99.90
19555;DHT22;9924;50.828;6.440;2022-09-03T02:31:39;16.10;99.90
19555;DHT22;9924;50.828;6.440;2022-09-03T02:34:06;16.10;99.90
19555;DHT22;9924;50.828;6.440;2022-09-03T02:36:36;16.00;99.90
19555;DHT22;9924;50.828;6.440;2022-09-03T02:39:03;16.00;99.90
19555;DHT22;9924;50.828;6.440;2022-09-03T02:41:30;16.00;99.90
19555;DHT22;9924;50.828;6.440;2022-09-03T02:46:48;16.00;99.90
19555;DHT22;9924;50.828;6.440;2022-09-03T02:49:17;16.00;99.90
19555;DHT22;9924;50.828;6.440;2022-09-03T02:51:47;16.10;99.90
19555;DHT22;9924;50.828;6.440;2022-09-03T02:54:13;16.00;99.90
19555;DHT22;9924;50.828;6.440;2022-09-03T02:56:42;16.10;99.90
19555;DHT22;9924;50.828;6.440;2022-09-03T02:59:08;16.10;99.90
19555;DHT22;9924;50.828;6.440;2022-09-03T03:01:34;16.20;99.90
19555;DHT22;9924;50.828;6.440;2022-09-03T03:04:01;16.20;99.90
19555;DHT22;9924;50.828;6.440;2022-09-03T03:06:31;16.20;99.90
19555;DHT22;9924;50.828;6.440;2022-09-03T03:08:58;16.20;99.90
19555;DHT22;9924;50.828;6.440;2022-09-03T03:11:24;16.20;99.90
19555;DHT22;9924;50.828;6.440;2022-09-03T03:13:51;16.30;99.90
19555;DHT22;9924;50.828;6.440;2022-09-03T03:16:17;16.30;99.90
19555;DHT22;9924;50.828;6.440;2022-09-03T03:18:43;16.30;99.90
19555;DHT22;9924;50.828;6.440;2022-09-03T03:21:16;16.30;99.90
19555;DHT22;9924;50.828;6.440;2022-09-03T03:23:42;16.30;99.90
19555;DHT22;9924;50.828;6.440;2022-09-03T03:26:29;16.20;99.90
19555;DHT22;9924;50.828;6.440;2022-09-03T03:28:57;16.20;99.90
19555;DHT22;9924;50.828;6.440;2022-09-03T03:31:24;16.20;99.90
19555;DHT22;9924;50.828;6.440;2022-09-03T03:33:55;16.20;99.90
19555;DHT22;9924;50.828;6.440;2022-09-03T03:36:26;16.20;99.90
19555;DHT22;9924;50.828;6.440;2022-09-03T03:38:54;16.10;99.90
19555;DHT22;9924;50.828;6.440;2022-09-03T03:41:22;16.20;99.90
19555;DHT22;9924;50.828;6.440;2022-09-03T03:43:55;16.20;99.90
19555;DHT22;9924;50.828;6.440;2022-09-03T03:46:28;16.20;99.90
19555;DHT22;9924;50.828;6.440;2022-09-03T03:48:54;16.30;99.90
19555;DHT22;9924;50.828;6.440;2022-09-03T03:51:20;16.30;99.90
19555;DHT22;9924;50.828;6.440;2022-09-03T03:53:47;16.30;99.90
19555;DHT22;9924;50.828;6.440;2022-09-03T03:56:14;16.30;99.90
19555;DHT22;9924;50.828;6.440;2022-09-03T03:58:41;16.30;99.90
19555;DHT22;9924;50.828;6.440;2022-09-03T04:01:15;16.30;99.90
19555;DHT22;9924;50.828;6.440;2022-09-03T04:03:42;16.20;99.90
19555;DHT22;9924;50.828;6.440;2022-09-03T04:06:10;16.10;99.90
19555;DHT22;9924;50.828;6.440;2022-09-03T04:08:38;16.10;99.90
19555;DHT22;9924;50.828;6.440;2022-09-03T04:11:06;16.00;99.90
19555;DHT22;9924;50.828;6.440;2022-09-03T04:13:34;16.00;99.90
19555;DHT22;9924;50.828;6.440;2022-09-03T04:16:02;16.00;99.90
19555;DHT22;9924;50.828;6.440;2022-09-03T04:18:29;16.00;99.90
19555;DHT22;9924;50.828;6.440;2022-09-03T04:21:03;16.00;99.90
19555;DHT22;9924;50.828;6.440;2022-09-03T04:23:31;16.00;99.90
19555;DHT22;9924;50.828;6.440;2022-09-03T04:25:57;16.00;99.90
19555;DHT22;9924;50.828;6.440;2022-09-03T04:31:25;15.90;99.90
19555;DHT22;9924;50.828;6.440;2022-09-03T04:34:10;15.90;99.90
19555;DHT22;9924;50.828;6.440;2022-09-03T04:37:17;15.80;99.90
19555;DHT22;9924;50.828;6.440;2022-09-03T04:39:47;15.70;99.90
19555;DHT22;9924;50.828;6.440;2022-09-03T04:42:16;15.70;99.90
19555;DHT22;9924;50.828;6.440;2022-09-03T04:44:42;15.70;99.90
19555;DHT22;9924;50.828;6.440;2022-09-03T04:47:40;15.60;99.90
19555;DHT22;9924;50.828;6.440;2022-09-03T04:50:11;15.60;99.90
19555;DHT22;9924;50.828;6.440;2022-09-03T04:55:25;15.50;99.90
19555;DHT22;9924;50.828;6.440;2022-09-03T04:58:00;15.50;99.90
19555;DHT22;9924;50.828;6.440;2022-09-03T05:00:26;15.50;99.90
19555;DHT22;9924;50.828;6.440;2022-09-03T05:02:55;15.50;99.90
19555;DHT22;9924;50.828;6.440;2022-09-03T05:05:24;15.60;99.90
19555;DHT22;9924;50.828;6.440;2022-09-03T05:07:50;15.60;99.90
19555;DHT22;9924;50.828;6.440;2022-09-03T05:10:19;15.60;99.90
19555;DHT22;9924;50.828;6.440;2022-09-03T05:12:59;15.60;99.90
19555;DHT22;9924;50.828;6.440;2022-09-03T05:15:30;15.60;99.90
19555;DHT22;9924;50.828;6.440;2022-09-03T05:18:01;15.60;99.90
19555;DHT22;9924;50.828;6.440;2022-09-03T05:20:28;15.60;99.90
19555;DHT22;9924;50.828;6.440;2022-09-03T05:23:01;15.60;99.90
19555;DHT22;9924;50.828;6.440;2022-09-03T05:25:28;15.60;99.90
19555;DHT22;9924;50.828;6.440;2022-09-03T05:27:58;15.60;99.90
19555;DHT22;9924;50.828;6.440;2022-09-03T05:30:29;15.70;99.90
19555;DHT22;9924;50.828;6.440;2022-09-03T05:32:55;15.80;99.90
19555;DHT22;9924;50.828;6.440;2022-09-03T05:35:23;15.80;99.90
19555;DHT22;9924;50.828;6.440;2022-09-03T05:37:53;15.90;99.90
19555;DHT22;9924;50.828;6.440;2022-09-03T05:40:20;15.90;99.90
19555;DHT22;9924;50.828;6.440;2022-09-03T05:42:46;16.00;99.90
19555;DHT22;9924;50.828;6.440;2022-09-03T05:45:14;16.00;99.90
19555;DHT22;9924;50.828;6.440;2022-09-03T05:47:39;16.10;99.90
19555;DHT22;9924;50.828;6.440;2022-09-03T05:50:07;16.10;99.90
19555;DHT22;9924;50.828;6.440;2022-09-03T05:52:37;16.20;99.90
19555;DHT22;9924;50.828;6.440;2022-09-03T05:55:03;16.20;99.90
19555;DHT22;9924;50.828;6.440;2022-09-03T05:57:29;16.30;99.90
19555;DHT22;9924;50.828;6.440;2022-09-03T05:59:55;16.30;99.90
19555;DHT22;9924;50.828;6.440;2022-09-03T06:02:21;16.40;99.90
19555;DHT22;9924;50.828;6.440;2022-09-03T06:04:48;16.50;99.90
19555;DHT22;9924;50.828;6.440;2022-09-03T06:07:15;16.50;99.90
19555;DHT22;9924;50.828;6.440;2022-09-03T06:09:41;16.50;99.90
19555;DHT22;9924;50.828;6.440;2022-09-03T06:12:07;16.60;99.90
19555;DHT22;9924;50.828;6.440;2022-09-03T06:14:32;16.60;99.90
19555;DHT22;9924;50.828;6.440;2022-09-03T06:16:58;16.60;99.90
19555;DHT22;9924;50.828;6.440;2022-09-03T06:19:24;16.60;99.90
19555;DHT22;9924;50.828;6.440;2022-09-03T06:21:50;16.70;99.90
19555;DHT22;9924;50.828;6.440;2022-09-03T06:24:18;16.70;99.90
19555;DHT22;9924;50.828;6.440;2022-09-03T06:26:44;16.70;99.90
19555;DHT22;9924;50.828;6.440;2022-09-03T06:29:11;16.70;99.90
19555;DHT22;9924;50.828;6.440;2022-09-03T06:31:38;16.70;99.90
19555;DHT22;9924;50.828;6.440;2022-09-03T06:34:04;16.70;99.90
19555;DHT22;9924;50.828;6.440;2022-09-03T06:36:31;16.70;99.90
19555;DHT22;9924;50.828;6.440;2022-09-03T06:38:57;16.80;99.90
19555;DHT22;9924;50.828;6.440;2022-09-03T06:41:28;16.90;99.90
19555;DHT22;9924;50.828;6.440;2022-09-03T06:44:00;17.00;99.90
19555;DHT22;9924;50.828;6.440;2022-09-03T06:46:29;17.10;99.90
19555;DHT22;9924;50.828;6.440;2022-09-03T06:48:55;17.10;99.90
19555;DHT22;9924;50.828;6.440;2022-09-03T06:51:25;17.20;99.90
19555;DHT22;9924;50.828;6.440;2022-09-03T06:53:54;17.30;99.90
19555;DHT22;9924;50.828;6.440;2022-09-03T06:56:24;17.30;99.90
19555;DHT22;9924;50.828;6.440;2022-09-03T06:58:56;17.40;99.90
19555;DHT22;9924;50.828;6.440;2022-09-03T07:01:24;17.40;99.90
19555;DHT22;9924;50.828;6.440;2022-09-03T07:03:55;17.50;99.90
19555;DHT22;9924;50.828;6.440;2022-09-03T07:06:23;17.60;99.90
19555;DHT22;9924;50.828;6.440;2022-09-03T07:08:49;17.70;99.90
19555;DHT22;9924;50.828;6.440;2022-09-03T07:11:17;17.70;99.90
19555;DHT22;9924;50.828;6.440;2022-09-03T07:13:46;17.70;99.90
19555;DHT22;9924;50.828;6.440;2022-09-03T07:16:20;17.80;99.90
19555;DHT22;9924;50.828;6.440;2022-09-03T07:18:47;17.80;99.90
19555;DHT22;9924;50.828;6.440;2022-09-03T07:21:18;17.80;99.90
19555;DHT22;9924;50.828;6.440;2022-09-03T07:23:48;17.80;99.90
19555;DHT22;9924;50.828;6.440;2022-09-03T07:26:25;17.90;99.90
19555;DHT22;9924;50.828;6.440;2022-09-03T07:28:53;18.00;99.90
19555;DHT22;9924;50.828;6.440;2022-09-03T07:31:21;18.10;99.90
19555;DHT22;9924;50.828;6.440;2022-09-03T07:34:11;18.50;99.90
19555;DHT22;9924;50.828;6.440;2022-09-03T07:36:42;19.20;99.90
19555;DHT22;9924;50.828;6.440;2022-09-03T07:39:11;19.80;99.90
19555;DHT22;9924;50.828;6.440;2022-09-03T07:41:38;20.20;99.90
19555;DHT22;9924;50.828;6.440;2022-09-03T07:44:07;20.40;99.90
19555;DHT22;9924;50.828;6.440;2022-09-03T07:46:44;20.20;99.90
19555;DHT22;9924;50.828;6.440;2022-09-03T07:49:12;20.10;99.90
19555;DHT22;9924;50.828;6.440;2022-09-03T07:51:38;20.40;99.90
19555;DHT22;9924;50.828;6.440;2022-09-03T07:54:12;20.50;99.90
19555;DHT22;9924;50.828;6.440;2022-09-03T07:56:39;20.50;99.90
19555;DHT22;9924;50.828;6.440;2022-09-03T07:59:10;20.50;99.90
19555;DHT22;9924;50.828;6.440;2022-09-03T08:01:36;20.40;99.90
19555;DHT22;9924;50.828;6.440;2022-09-03T08:04:02;20.30;99.90
19555;DHT22;9924;50.828;6.440;2022-09-03T08:06:32;20.20;99.90
19555;DHT22;9924;50.828;6.440;2022-09-03T08:09:07;20.10;99.90
19555;DHT22;9924;50.828;6.440;2022-09-03T08:11:39;20.00;99.90
19555;DHT22;9924;50.828;6.440;2022-09-03T08:14:07;20.10;99.90
19555;DHT22;9924;50.828;6.440;2022-09-03T08:16:36;20.10;99.90
19555;DHT22;9924;50.828;6.440;2022-09-03T08:19:02;20.00;99.90
19555;DHT22;9924;50.828;6.440;2022-09-03T08:21:28;20.00;99.90
19555;DHT22;9924;50.828;6.440;2022-09-03T08:23:55;20.00;99.90
19555;DHT22;9924;50.828;6.440;2022-09-03T08:26:31;20.10;99.90
19555;DHT22;9924;50.828;6.440;2022-09-03T08:28:58;20.30;99.90
19555;DHT22;9924;50.828;6.440;2022-09-03T08:31:28;20.40;99.90
19555;DHT22;9924;50.828;6.440;2022-09-03T08:33:55;20.40;99.90
19555;DHT22;9924;50.828;6.440;2022-09-03T08:36:27;20.60;99.90
19555;DHT22;9924;50.828;6.440;2022-09-03T08:38:55;20.70;99.90
19555;DHT22;9924;50.828;6.440;2022-09-03T08:44:29;21.00;99.90
19555;DHT22;9924;50.828;6.440;2022-09-03T08:49:36;21.20;99.90
19555;DHT22;9924;50.828;6.440;2022-09-03T08:54:53;21.50;99.90
19555;DHT22;9924;50.828;6.440;2022-09-03T08:57:24;21.80;99.90
19555;DHT22;9924;50.828;6.440;2022-09-03T08:59:53;22.00;99.90
19555;DHT22;9924;50.828;6.440;2022-09-03T09:04:58;22.50;99.90
19555;DHT22;9924;50.828;6.440;2022-09-03T09:10:19;23.20;99.90
19555;DHT22;9924;50.828;6.440;2022-09-03T09:19:12;24.70;99.90
19555;DHT22;9924;50.828;6.440;2022-09-03T09:21:49;24.80;99.90
19555;DHT22;9924;50.828;6.440;2022-09-03T09:24:25;24.80;99.90
19555;DHT22;9924;50.828;6.440;2022-09-03T09:26:57;25.10;99.90
19555;DHT22;9924;50.828;6.440;2022-09-03T09:29:29;25.50;99.90
19555;DHT22;9924;50.828;6.440;2022-09-03T09:31:56;25.90;99.90
19555;DHT22;9924;50.828;6.440;2022-09-03T09:34:24;25.90;99.90
19555;DHT22;9924;50.828;6.440;2022-09-03T09:36:53;25.70;99.90
19555;DHT22;9924;50.828;6.440;2022-09-03T09:39:20;25.70;99.90
19555;DHT22;9924;50.828;6.440;2022-09-03T09:42:06;25.90;99.90
19555;DHT22;9924;50.828;6.440;2022-09-03T09:44:35;26.20;99.70
19555;DHT22;9924;50.828;6.440;2022-09-03T09:47:12;26.60;99.20
19555;DHT22;9924;50.828;6.440;2022-09-03T09:49:51;26.90;98.30
19555;DHT22;9924;50.828;6.440;2022-09-03T09:52:21;27.30;97.40
19555;DHT22;9924;50.828;6.440;2022-09-03T09:54:51;27.30;96.90
19555;DHT22;9924;50.828;6.440;2022-09-03T09:57:24;27.00;97.30
19555;DHT22;9924;50.828;6.440;2022-09-03T10:00:10;27.00;97.00
19555;DHT22;9924;50.828;6.440;2022-09-03T10:02:39;26.90;96.90
19555;DHT22;9924;50.828;6.440;2022-09-03T10:08:00;26.70;97.70
19555;DHT22;9924;50.828;6.440;2022-09-03T10:10:27;26.50;97.20
19555;DHT22;9924;50.828;6.440;2022-09-03T10:15:57;26.90;97.40
19555;DHT22;9924;50.828;6.440;2022-09-03T10:18:59;27.30;97.10
19555;DHT22;9924;50.828;6.440;2022-09-03T10:25:04;27.20;96.60
19555;DHT22;9924;50.828;6.440;2022-09-03T10:27:32;27.60;96.20
19555;DHT22;9924;50.828;6.440;2022-09-03T10:30:01;27.90;95.90
19555;DHT22;9924;50.828;6.440;2022-09-03T10:35:31;28.10;95.60
19555;DHT22;9924;50.828;6.440;2022-09-03T10:38:09;28.00;95.60
19555;DHT22;9924;50.828;6.440;2022-09-03T10:46:15;26.60;96.60
19555;DHT22;9924;50.828;6.440;2022-09-03T10:49:17;26.10;97.60
19555;DHT22;9924;50.828;6.440;2022-09-03T10:54:52;26.30;98.20
19555;DHT22;9924;50.828;6.440;2022-09-03T10:57:48;26.80;97.50
19555;DHT22;9924;50.828;6.440;2022-09-03T11:00:23;27.20;96.80
19555;DHT22;9924;50.828;6.440;2022-09-03T11:03:06;26.90;96.60
19555;DHT22;9924;50.828;6.440;2022-09-03T11:05:55;26.60;97.10
19555;DHT22;9924;50.828;6.440;2022-09-03T11:11:13;25.70;98.40
19555;DHT22;9924;50.828;6.440;2022-09-03T11:16:37;25.10;99.50
19555;DHT22;9924;50.828;6.440;2022-09-03T11:19:08;25.20;99.40
19555;DHT22;9924;50.828;6.440;2022-09-03T11:21:37;25.70;99.10
19555;DHT22;9924;50.828;6.440;2022-09-03T11:24:18;26.10;98.60
19555;DHT22;9924;50.828;6.440;2022-09-03T11:32:13;28.20;96.50
19555;DHT22;9924;50.828;6.440;2022-09-03T11:34:48;28.90;95.90
19555;DHT22;9924;50.828;6.440;2022-09-03T11:37:20;29.00;95.30
19555;DHT22;9924;50.828;6.440;2022-09-03T11:40:06;28.60;95.60
19555;DHT22;9924;50.828;6.440;2022-09-03T11:42:39;28.00;96.00
19555;DHT22;9924;50.828;6.440;2022-09-03T11:47:54;27.20;97.20
19555;DHT22;9924;50.828;6.440;2022-09-03T11:50:28;26.90;97.80
19555;DHT22;9924;50.828;6.440;2022-09-03T11:56:08;26.50;98.50
19555;DHT22;9924;50.828;6.440;2022-09-03T11:58:39;26.30;98.20
19555;DHT22;9924;50.828;6.440;2022-09-03T12:01:15;26.30;99.20
19555;DHT22;9924;50.828;6.440;2022-09-03T12:04:16;26.20;99.00
19555;DHT22;9924;50.828;6.440;2022-09-03T12:07:20;26.20;99.20
19555;DHT22;9924;50.828;6.440;2022-09-03T12:13:00;26.30;98.90
19555;DHT22;9924;50.828;6.440;2022-09-03T12:17:58;26.60;99.60
19555;DHT22;9924;50.828;6.440;2022-09-03T12:20:46;27.00;98.00
19555;DHT22;9924;50.828;6.440;2022-09-03T12:23:40;27.70;98.00
19555;DHT22;9924;50.828;6.440;2022-09-03T12:26:12;28.20;97.70
19555;DHT22;9924;50.828;6.440;2022-09-03T12:28:41;28.70;96.20
19555;DHT22;9924;50.828;6.440;2022-09-03T12:31:18;29.10;95.50
19555;DHT22;9924;50.828;6.440;2022-09-03T12:33:55;29.50;95.20
19555;DHT22;9924;50.828;6.440;2022-09-03T12:36:25;29.70;95.00
19555;DHT22;9924;50.828;6.440;2022-09-03T12:38:54;29.90;94.50
19555;DHT22;9924;50.828;6.440;2022-09-03T12:41:26;30.10;94.00
19555;DHT22;9924;50.828;6.440;2022-09-03T12:43:57;30.30;94.20
19555;DHT22;9924;50.828;6.440;2022-09-03T12:46:28;30.20;94.00
19555;DHT22;9924;50.828;6.440;2022-09-03T12:48:57;30.70;94.40
19555;DHT22;9924;50.828;6.440;2022-09-03T12:51:30;30.70;93.50
19555;DHT22;9924;50.828;6.440;2022-09-03T12:53:57;30.50;93.60
19555;DHT22;9924;50.828;6.440;2022-09-03T12:56:24;30.90;93.20
19555;DHT22;9924;50.828;6.440;2022-09-03T12:58:57;31.30;92.40
19555;DHT22;9924;50.828;6.440;2022-09-03T13:01:27;31.20;92.70
19555;DHT22;9924;50.828;6.440;2022-09-03T13:07:03;32.00;92.20
19555;DHT22;9924;50.828;6.440;2022-09-03T13:09:35;32.10;91.70
19555;DHT22;9924;50.828;6.440;2022-09-03T13:12:02;31.90;90.70
19555;DHT22;9924;50.828;6.440;2022-09-03T13:14:46;31.40;90.90
19555;DHT22;9924;50.828;6.440;2022-09-03T13:23:09;30.80;92.50
19555;DHT22;9924;50.828;6.440;2022-09-03T13:32:02;30.40;92.00
19555;DHT22;9924;50.828;6.440;2022-09-03T13:34:47;29.50;93.10
19555;DHT22;9924;50.828;6.440;2022-09-03T13:37:47;28.70;94.40
19555;DHT22;9924;50.828;6.440;2022-09-03T13:43:29;27.80;95.50
19555;DHT22;9924;50.828;6.440;2022-09-03T13:46:16;27.70;96.30
19555;DHT22;9924;50.828;6.440;2022-09-03T13:48:44;27.80;95.80
19555;DHT22;9924;50.828;6.440;2022-09-03T13:57:04;27.80;96.60
19555;DHT22;9924;50.828;6.440;2022-09-03T14:05:05;26.80;98.10
19555;DHT22;9924;50.828;6.440;2022-09-03T14:13:27;27.50;97.30
19555;DHT22;9924;50.828;6.440;2022-09-03T14:16:09;27.70;96.90
19555;DHT22;9924;50.828;6.440;2022-09-03T14:19:20;28.50;96.40
19555;DHT22;9924;50.828;6.440;2022-09-03T14:24:45;30.10;95.30
19555;DHT22;9924;50.828;6.440;2022-09-03T14:27:27;30.50;94.40
19555;DHT22;9924;50.828;6.440;2022-09-03T14:30:05;31.00;94.50
19555;DHT22;9924;50.828;6.440;2022-09-03T14:36:25;31.50;93.10
19555;DHT22;9924;50.828;6.440;2022-09-03T14:52:39;28.30;95.80
19555;DHT22;9924;50.828;6.440;2022-09-03T14:56:03;28.30;95.70
19555;DHT22;9924;50.828;6.440;2022-09-03T14:58:29;28.10;96.10
19555;DHT22;9924;50.828;6.440;2022-09-03T15:01:35;27.70;96.10
19555;DHT22;9924;50.828;6.440;2022-09-03T15:10:03;26.00;99.60
19555;DHT22;9924;50.828;6.440;2022-09-03T15:12:38;25.80;99.90
19555;DHT22;9924;50.828;6.440;2022-09-03T15:15:21;25.60;99.90
19555;DHT22;9924;50.828;6.440;2022-09-03T15:29:51;25.40;99.90
19555;DHT22;9924;50.828;6.440;2022-09-03T15:37:46;24.70;99.90
19555;DHT22;9924;50.828;6.440;2022-09-03T15:40:28;24.60;99.90
19555;DHT22;9924;50.828;6.440;2022-09-03T15:43:20;24.60;99.90
19555;DHT22;9924;50.828;6.440;2022-09-03T15:45:53;24.60;99.90
19555;DHT22;9924;50.828;6.440;2022-09-03T15:48:46;24.50;99.90
19555;DHT22;9924;50.828;6.440;2022-09-03T15:51:22;24.40;99.90
19555;DHT22;9924;50.828;6.440;2022-09-03T15:53:58;24.50;99.90
19555;DHT22;9924;50.828;6.440;2022-09-03T15:56:40;24.50;99.90
19555;DHT22;9924;50.828;6.440;2022-09-03T15:59:17;24.50;99.90
19555;DHT22;9924;50.828;6.440;2022-09-03T16:02:05;24.50;99.90
19555;DHT22;9924;50.828;6.440;2022-09-03T16:10:10;24.70;99.90
19555;DHT22;9924;50.828;6.440;2022-09-03T16:12:56;24.60;99.90
19555;DHT22;9924;50.828;6.440;2022-09-03T16:15:35;24.60;99.90
19555;DHT22;9924;50.828;6.440;2022-09-03T16:18:22;24.60;99.90
19555;DHT22;9924;50.828;6.440;2022-09-03T16:23:55;24.70;99.90
19555;DHT22;9924;50.828;6.440;2022-09-03T16:26:32;24.60;99.90
19555;DHT22;9924;50.828;6.440;2022-09-03T16:29:11;24.60;99.90
19555;DHT22;9924;50.828;6.440;2022-09-03T16:45:38;24.20;99.90
19555;DHT22;9924;50.828;6.440;2022-09-03T16:56:53;25.10;99.90
19555;DHT22;9924;50.828;6.440;2022-09-03T16:59:27;25.20;99.90
19555;DHT22;9924;50.828;6.440;2022-09-03T17:04:58;25.50;99.90
19555;DHT22;9924;50.828;6.440;2022-09-03T17:07:59;25.40;99.90
19555;DHT22;9924;50.828;6.440;2022-09-03T17:13:31;24.90;99.90
19555;DHT22;9924;50.828;6.440;2022-09-03T17:21:35;24.60;99.90
19555;DHT22;9924;50.828;6.440;2022-09-03T17:29:30;24.40;99.90
19555;DHT22;9924;50.828;6.440;2022-09-03T17:46:24;24.00;99.90
19555;DHT22;9924;50.828;6.440;2022-09-03T17:48:54;24.00;99.90
19555;DHT22;9924;50.828;6.440;2022-09-03T17:51:26;23.90;99.90
19555;DHT22;9924;50.828;6.440;2022-09-03T17:56:32;23.80;99.90
19555;DHT22;9924;50.828;6.440;2022-09-03T17:59:04;23.80;99.90
19555;DHT22;9924;50.828;6.440;2022-09-03T18:01:36;23.70;99.90
19555;DHT22;9924;50.828;6.440;2022-09-03T18:06:57;23.50;99.90
19555;DHT22;9924;50.828;6.440;2022-09-03T18:09:40;23.30;99.90
19555;DHT22;9924;50.828;6.440;2022-09-03T18:12:11;23.20;99.90
19555;DHT22;9924;50.828;6.440;2022-09-03T18:14:49;23.10;99.90
19555;DHT22;9924;50.828;6.440;2022-09-03T18:20:05;22.90;99.90
19555;DHT22;9924;50.828;6.440;2022-09-03T18:26:12;22.70;99.90
19555;DHT22;9924;50.828;6.440;2022-09-03T18:29:04;22.60;99.90
19555;DHT22;9924;50.828;6.440;2022-09-03T18:31:50;22.40;99.90
19555;DHT22;9924;50.828;6.440;2022-09-03T18:34:40;22.30;99.90
19555;DHT22;9924;50.828;6.440;2022-09-03T18:37:26;22.20;99.90
19555;DHT22;9924;50.828;6.440;2022-09-03T18:40:21;22.00;99.90
19555;DHT22;9924;50.828;6.440;2022-09-03T18:44:22;21.90;99.90
19555;DHT22;9924;50.828;6.440;2022-09-03T18:46:47;21.80;99.90
19555;DHT22;9924;50.828;6.440;2022-09-03T18:52:36;21.50;99.90
19555;DHT22;9924;50.828;6.440;2022-09-03T18:55:55;21.40;99.90
19555;DHT22;9924;50.828;6.440;2022-09-03T19:02:12;21.20;99.90
19555;DHT22;9924;50.828;6.440;2022-09-03T19:05:08;21.10;99.90
19555;DHT22;9924;50.828;6.440;2022-09-03T19:08:12;21.00;99.90
19555;DHT22;9924;50.828;6.440;2022-09-03T19:11:22;21.00;99.90
19555;DHT22;9924;50.828;6.440;2022-09-03T19:17:22;20.90;99.90
19555;DHT22;9924;50.828;6.440;2022-09-03T19:20:26;20.80;99.90
19555;DHT22;9924;50.828;6.440;2022-09-03T19:23:11;20.90;99.90
19555;DHT22;9924;50.828;6.440;2022-09-03T19:26:03;20.90;99.90
19555;DHT22;9924;50.828;6.440;2022-09-03T19:28:53;20.80;99.90
19555;DHT22;9924;50.828;6.440;2022-09-03T19:31:55;20.80;99.90
19555;DHT22;9924;50.828;6.440;2022-09-03T19:46:58;20.30;99.90
19555;DHT22;9924;50.828;6.440;2022-09-03T19:50:02;20.20;99.90
19555;DHT22;9924;50.828;6.440;2022-09-03T19:52:57;20.20;99.90
19555;DHT22;9924;50.828;6.440;2022-09-03T19:55:51;20.10;99.90
19555;DHT22;9924;50.828;6.440;2022-09-03T19:58:39;20.10;99.90
19555;DHT22;9924;50.828;6.440;2022-09-03T20:01:32;20.10;99.90
19555;DHT22;9924;50.828;6.440;2022-09-03T20:04:17;20.10;99.90
19555;DHT22;9924;50.828;6.440;2022-09-03T20:07:05;20.10;99.90
19555;DHT22;9924;50.828;6.440;2022-09-03T20:09:53;20.20;99.90
19555;DHT22;9924;50.828;6.440;2022-09-03T20:12:44;20.20;99.90
19555;DHT22;9924;50.828;6.440;2022-09-03T20:15:12;20.20;99.90
19555;DHT22;9924;50.828;6.440;2022-09-03T20:23:50;20.10;99.90
19555;DHT22;9924;50.828;6.440;2022-09-03T20:27:11;20.00;99.90
19555;DHT22;9924;50.828;6.440;2022-09-03T20:30:02;19.90;99.90
19555;DHT22;9924;50.828;6.440;2022-09-03T20:35:51;19.70;99.90
19555;DHT22;9924;50.828;6.440;2022-09-03T20:50:30;19.40;99.90
19555;DHT22;9924;50.828;6.440;2022-09-03T20:53:09;19.40;99.90
19555;DHT22;9924;50.828;6.440;2022-09-03T20:55:41;19.30;99.90
19555;DHT22;9924;50.828;6.440;2022-09-03T20:58:18;19.20;99.90
19555;DHT22;9924;50.828;6.440;2022-09-03T21:01:24;19.20;99.90
19555;DHT22;9924;50.828;6.440;2022-09-03T21:06:55;18.80;99.90
19555;DHT22;9924;50.828;6.440;2022-09-03T21:12:57;18.80;99.90
19555;DHT22;9924;50.828;6.440;2022-09-03T21:15:27;18.90;99.90
19555;DHT22;9924;50.828;6.440;2022-09-03T21:24:31;18.80;99.90
19555;DHT22;9924;50.828;6.440;2022-09-03T21:27:04;18.80;99.90
19555;DHT22;9924;50.828;6.440;2022-09-03T21:32:16;18.60;99.90
19555;DHT22;9924;50.828;6.440;2022-09-03T21:37:17;18.60;99.90
19555;DHT22;9924;50.828;6.440;2022-09-03T21:39:51;18.60;99.90
19555;DHT22;9924;50.828;6.440;2022-09-03T21:47:21;18.50;99.90
19555;DHT22;9924;50.828;6.440;2022-09-03T21:50:10;18.50;99.90
19555;DHT22;9924;50.828;6.440;2022-09-03T21:52:53;18.40;99.90
19555;DHT22;9924;50.828;6.440;2022-09-03T21:58:10;18.50;99.90
19555;DHT22;9924;50.828;6.440;2022-09-03T22:00:38;18.30;99.90
19555;DHT22;9924;50.828;6.440;2022-09-03T22:03:05;18.20;99.90
19555;DHT22;9924;50.828;6.440;2022-09-03T22:05:51;18.20;99.90